Atqasuk, AK

2:33 PM AKDT on April 01, 2015 (GMT -0800)
Atqasuk Edward Burnell Sr Mem | | Change Station
CLOSE
Current Station
Airport
Location: Atqasuk Edward Burnell Sr Mem,
Elevation: 95 ft
Nearby Weather Stations

Elev 95 ft 70.47 °N, 157.44 °W | Updated 37 minutes ago

Light Snow
Light Snow
-3 °F
Feels Like -25 °F
N
18
Wind Variable Wind from East

Today
High -- | Low -- °F
--% Chance of Precip.
Yesterday
High -- | Low -- °F
Precip. -- in
7:31 AM 9:38 PM
Waxing Gibbous, 94% visible
Pressure 30.16 in
Visibility 9.0 miles
Clouds Clear
Windchill -25 °F
Dew Point -7 °F
Humidity 83%
Rainfall 0.00 in
Snow Depth Not available.
UV 2 out of 12
Pollen Not available.
Air Quality Not available.
Flu Activity Not available.
METAR PATQ 012156Z AUTO 08016KT 9SM -SN CLR M19/M22 A3013 RMK AO2 TSNO T11941216 SNB27 P0000 SLP211 $

More Conditions Fewer Conditions

Pressure 30.16 in
Visibility 9.0 miles
Clouds Clear
Windchill -25 °F
Dew Point -7 °F
Humidity 83%
Rainfall 0.00 in
Snow Depth Not available.
UV 2 out of 12
Pollen Not available.
Air Quality Not available.
Flu Activity Not available.
METAR PATQ 012156Z AUTO 08016KT 9SM -SN CLR M19/M22 A3013 RMK AO2 TSNO T11941216 SNB27 P0000 SLP211 $

More Conditions Fewer Conditions

10-Day Weather Forecast

Almanac

Astronomy

Apr. 01, 2015 Rise Set
Actual Time
Civil Twilight
Nautical Twilight
Astronomical Twilight
Moon
Length of Visible Light
Length of Day
Tomorrow will be .
, % of the Moon is Illuminated

Today's Extremes

State Highs State Lows

Community

WunderPhotos

Upload Photos

1,810,096 photos uploaded!

WunderBlogs® & News

Nearby

Air Quality

  Air Quality AQ Index Pollutant
Not available.

Snow Depth

Station Depth Elevation

Earthquake Activity

City Distance Mag. Time & Date
Minimum magnitude displayed is 2.5.

Coastal Water Temperatures

Place Temperature

Stations

Nearby Weather Stations

Station Location Temp. Windchill Dew Point Humidity Wind Precip. Elev Updated Type